Time;durP1;ratioP1;P1;durP2;ratioP2;P2;SDS_P1;SDS_P2;PMS_P1;PMS_P2;Temp;Humidity;BMP_temperature;BMP_pressure;BME280_temperature;BME280_humidity;BME280_pressure;Samples;Min_cycle;Max_cycle;Signal;HPM_P1;HPM_P2
2022/06/20 04:18:36;;;;;;;7.05;5.40;;;;;;;17.24;85.29;99962.13;5541322;32;288810;-87
2022/06/20 04:21:53;;;;;;;7.97;5.90;;;;;;;17.24;85.29;99962.13;5543455;32;34112;-87
2022/06/20 04:25:01;;;;;;;6.78;5.30;;;;;;;16.89;87.17;99952.53;5542781;32;34407;-87
2022/06/20 04:28:22;;;;;;;6.75;5.53;;;;;;;17.02;86.32;99955.03;5542606;32;33538;-87
2022/06/20 04:31:59;;;;;;;7.68;5.25;;;;;;;17.15;87.05;99952.22;5553419;32;33960;-87
2022/06/20 04:35:19;;;;;;;8.48;5.57;;;;;;;17.37;86.49;99961.97;5543828;32;33938;-88
2022/06/20 04:38:32;;;;;;;11.52;5.90;;;;;;;17.67;85.85;99963.00;5544234;32;33928;-89
2022/06/20 04:41:37;;;;;;;6.93;5.55;;;;;;;17.91;84.46;99964.53;5544977;32;33755;-89
2022/06/20 04:44:49;;;;;;;7.15;5.43;;;;;;;18.09;81.85;99959.41;5544794;32;34238;-89
2022/06/20 04:48:05;;;;;;;9.55;5.60;;;;;;;18.29;82.00;99960.31;5544203;32;34318;-89
2022/06/20 04:51:12;;;;;;;10.88;5.82;;;;;;;18.43;80.42;99958.22;5544299;32;35332;-89
2022/06/20 04:54:21;;;;;;;7.68;5.78;;;;;;;18.72;77.19;99957.44;5543756;32;33472;-89
2022/06/20 04:57:26;;;;;;;8.38;5.15;;;;;;;19.29;74.95;99953.19;5543665;32;33849;-87
2022/06/20 05:00:37;;;;;;;8.45;5.62;;;;;;;19.59;73.28;99962.06;5543626;32;33743;-89
2022/06/20 05:03:45;;;;;;;67.82;8.43;;;;;;;19.78;72.17;99958.47;5543770;32;33963;-87
2022/06/20 05:06:48;;;;;;;9.82;5.30;;;;;;;20.19;71.93;99969.81;5544167;32;33713;-87
2022/06/20 05:10:01;;;;;;;10.88;5.30;;;;;;;20.20;70.45;99965.28;5543883;32;34871;-87
2022/06/20 05:13:13;;;;;;;5.80;4.75;;;;;;;20.41;70.38;99967.72;5543826;32;34239;-87
2022/06/20 05:16:27;;;;;;;9.63;5.18;;;;;;;20.74;69.86;99965.38;5536604;32;33724;-87
2022/06/20 05:19:40;;;;;;;7.95;5.03;;;;;;;21.21;67.47;99966.16;5553922;32;35305;-87
2022/06/20 05:22:50;;;;;;;6.82;4.37;;;;;;;24.43;54.63;99959.81;5553118;32;34759;-87
2022/06/20 05:25:53;;;;;;;5.65;4.43;;;;;;;28.19;46.25;99963.84;5545191;32;33706;-87
2022/06/20 05:28:59;;;;;;;5.72;4.40;;;;;;;31.26;37.94;99961.06;5533937;32;34476;-88
2022/06/20 05:32:07;;;;;;;11.23;4.50;;;;;;;33.51;32.44;99958.88;5529924;32;33539;-88
2022/06/20 05:35:21;;;;;;;5.62;4.25;;;;;;;33.97;28.97;99967.31;5530455;32;33830;-88
2022/06/20 05:38:36;;;;;;;6.18;4.00;;;;;;;35.57;28.02;99967.72;5538941;32;33580;-88
2022/06/20 05:41:40;;;;;;;6.03;3.97;;;;;;;37.92;24.94;99967.06;5530415;32;32300;-88
2022/06/20 05:44:42;;;;;;;12.18;3.70;;;;;;;38.04;24.67;99966.81;5530669;32;34031;-88
2022/06/20 05:47:53;;;;;;;5.62;3.78;;;;;;;39.87;22.81;99968.63;5519809;32;34199;-88
2022/06/20 05:51:02;;;;;;;4.45;3.62;;;;;;;39.24;22.63;99973.44;5527513;32;34143;-88
2022/06/20 05:54:17;;;;;;;5.78;3.50;;;;;;;39.01;22.45;99963.75;5532217;32;33889;-88
2022/06/20 05:57:24;;;;;;;7.78;3.22;;;;;;;39.43;22.70;99965.38;5530112;32;34545;-88
2022/06/20 06:00:32;;;;;;;7.25;3.58;;;;;;;40.68;21.35;99974.03;5518707;32;34249;-87
2022/06/20 06:03:42;;;;;;;6.68;3.87;;;;;;;40.25;21.28;99970.94;5519634;32;33959;-87
2022/06/20 06:06:52;;;;;;;3.28;2.90;;;;;;;41.43;19.67;99982.38;5522666;32;34226;-86
2022/06/20 06:10:04;;;;;;;5.18;3.50;;;;;;;41.85;18.77;99984.69;5521547;32;33802;-87
2022/06/20 06:13:13;;;;;;;6.32;3.42;;;;;;;40.48;19.86;99963.91;5524460;32;33857;-88
2022/06/20 06:19:51;;;;;;;7.80;3.70;;;;;;;41.81;19.24;99966.94;5523985;32;34696;-88
2022/06/20 06:22:59;;;;;;;4.05;3.35;;;;;;;41.85;18.86;99966.06;5517696;32;32749;-88
2022/06/20 06:26:01;;;;;;;6.97;3.50;;;;;;;42.75;18.58;99958.13;5524714;32;33598;-89
2022/06/20 06:29:13;;;;;;;4.25;3.67;;;;;;;43.49;17.86;99953.81;5530584;32;34795;-89
2022/06/20 06:32:45;;;;;;;9.05;3.70;;;;;;;43.13;17.29;99952.47;5528474;32;32284;-88
2022/06/20 06:35:54;;;;;;;6.22;4.18;;;;;;;41.36;19.16;99951.25;5528076;32;34042;-88
2022/06/20 06:39:15;;;;;;;8.80;3.95;;;;;;;41.01;19.54;99953.25;5529336;32;33649;-88
2022/06/20 06:42:18;;;;;;;4.50;3.87;;;;;;;39.51;20.76;99943.75;5675742;26;34407;-89
2022/06/20 06:45:25;;;;;;;5.53;3.47;;;;;;;38.36;22.62;99948.41;5549635;32;35233;-89
2022/06/20 06:48:46;;;;;;;8.95;3.92;;;;;;;37.72;23.42;99951.16;5564827;26;33649;-89
2022/06/20 06:51:54;;;;;;;8.80;4.65;;;;;;;36.66;24.45;99949.78;5599625;26;34254;-88
2022/06/20 06:54:59;;;;;;;8.05;4.00;;;;;;;35.63;25.93;99950.19;5579597;26;34320;-90
2022/06/20 06:58:35;;;;;;;8.75;4.45;;;;;;;33.34;29.58;99945.00;5531040;32;33734;-90
2022/06/20 07:01:43;;;;;;;7.72;4.05;;;;;;;33.62;28.40;99940.69;5558562;32;33661;-89
2022/06/20 07:12:26;;;;;;;7.37;4.37;;;;;;;32.62;31.36;99924.78;890398;26;20375;-88
2022/06/20 07:15:32;;;;;;;5.03;4.30;;;;;;;32.61;31.20;99914.84;5526196;32;32331;-88
2022/06/20 07:18:46;;;;;;;6.68;4.90;;;;;;;32.45;31.75;99906.25;5527066;32;33771;-88
2022/06/20 07:21:49;;;;;;;9.68;4.47;;;;;;;31.77;31.47;99899.88;5528726;32;33835;-89
2022/06/20 07:24:54;;;;;;;7.18;4.80;;;;;;;32.26;32.00;99892.53;5529876;32;33255;-88
2022/06/20 07:28:12;;;;;;;9.38;4.70;;;;;;;31.61;32.83;99891.19;5530403;32;33962;-88
2022/06/20 07:31:37;;;;;;;9.45;5.03;;;;;;;31.56;33.46;99886.41;5518863;32;34653;-92
2022/06/20 07:34:49;;;;;;;13.50;5.70;;;;;;;31.36;32.99;99878.41;5516164;32;33468;-89
2022/06/20 07:38:05;;;;;;;12.77;5.35;;;;;;;31.17;32.83;99875.59;5521656;32;33917;-88
2022/06/20 07:41:39;;;;;;;17.55;5.22;;;;;;;31.83;33.09;99877.84;5527954;32;33853;-89
2022/06/20 07:44:48;;;;;;;6.65;5.15;;;;;;;31.20;33.24;99875.16;5549087;26;34632;-89
2022/06/20 07:47:57;;;;;;;10.43;5.20;;;;;;;32.20;31.19;99873.41;5509454;32;34502;-88
2022/06/20 07:51:15;;;;;;;8.98;5.30;;;;;;;32.18;31.40;99867.34;5539052;32;33598;-89
2022/06/20 07:54:42;;;;;;;9.57;5.50;;;;;;;32.57;30.09;99867.00;5528775;32;33133;-89
2022/06/20 07:57:50;;;;;;;6.90;4.97;;;;;;;32.66;29.93;99862.84;5529332;32;34785;-89
2022/06/20 08:00:54;;;;;;;5.43;4.90;;;;;;;32.52;29.78;99863.06;5528099;32;34460;-88
2022/06/20 08:04:03;;;;;;;8.13;5.03;;;;;;;32.47;30.61;99871.16;5521529;32;35074;-89
2022/06/20 08:07:24;;;;;;;7.15;5.20;;;;;;;33.27;28.90;99859.91;5526191;32;35218;-91
2022/06/20 08:10:37;;;;;;;7.12;4.90;;;;;;;33.22;28.86;99861.72;5525794;32;33797;-88
2022/06/20 08:13:51;;;;;;;9.52;5.18;;;;;;;33.44;30.05;99854.50;5529057;32;34527;-88
2022/06/20 08:17:01;;;;;;;8.82;5.30;;;;;;;33.99;29.07;99860.59;5527164;32;32494;-88
2022/06/20 08:20:04;;;;;;;6.35;5.05;;;;;;;33.93;28.63;99850.59;5527053;32;32717;-88
2022/06/20 08:23:38;;;;;;;13.30;5.20;;;;;;;33.62;29.75;99846.41;5520316;32;35334;-88
2022/06/20 08:26:55;;;;;;;15.13;5.35;;;;;;;35.09;28.50;99849.59;5512726;32;33641;-88
2022/06/20 08:30:15;;;;;;;8.07;5.12;;;;;;;34.61;28.22;99849.94;5510292;32;34952;-88
2022/06/20 08:33:26;;;;;;;9.15;5.28;;;;;;;34.37;28.56;99839.06;5510911;32;34120;-87
2022/06/20 08:36:37;;;;;;;6.50;5.22;;;;;;;34.08;29.28;99839.06;5514293;32;34280;-88
2022/06/20 08:40:17;;;;;;;11.52;5.70;;;;;;;34.71;28.87;99835.50;5515775;32;34093;-88
2022/06/20 08:43:23;;;;;;;8.77;5.82;;;;;;;34.71;28.56;99832.75;5523773;32;33908;-89
2022/06/20 08:46:36;;;;;;;13.93;5.15;;;;;;;34.61;28.53;99829.84;5521643;32;33363;-88
2022/06/20 08:50:08;;;;;;;7.65;4.97;;;;;;;35.00;27.29;99834.56;5514484;32;32891;-89
2022/06/20 08:53:58;;;;;;;8.93;5.25;;;;;;;35.51;26.78;99836.38;5512446;32;35188;-88
2022/06/20 08:57:24;;;;;;;14.05;5.70;;;;;;;35.00;28.12;99832.66;5523514;32;34679;-88
2022/06/20 09:00:34;;;;;;;8.60;5.47;;;;;;;35.37;28.00;99825.75;5521906;32;34155;-88
2022/06/20 09:04:11;;;;;;;6.30;5.10;;;;;;;36.49;26.56;99831.13;5519786;32;34702;-88
2022/06/20 09:07:17;;;;;;;14.25;5.60;;;;;;;36.39;26.59;99829.09;5511772;32;32928;-88
2022/06/20 09:10:54;;;;;;;9.00;5.85;;;;;;;36.77;26.56;99821.72;5511814;32;34068;-89
2022/06/20 09:14:28;;;;;;;8.27;5.40;;;;;;;35.80;27.02;99816.91;5510155;32;34723;-88
2022/06/20 09:18:06;;;;;;;9.95;5.60;;;;;;;36.67;26.18;99816.94;5525269;32;34148;-89
2022/06/20 09:21:42;;;;;;;11.23;5.62;;;;;;;35.82;27.21;99809.19;5528760;32;33606;-89
2022/06/20 09:25:28;;;;;;;10.80;5.68;;;;;;;36.42;26.48;99803.72;5531247;32;34318;-92
2022/06/20 09:28:40;;;;;;;9.57;5.80;;;;;;;36.18;26.82;99803.25;5480203;32;34247;-88
2022/06/20 09:32:01;;;;;;;8.63;5.90;;;;;;;35.52;27.04;99797.53;5490053;32;34185;-88
2022/06/20 09:35:41;;;;;;;10.85;6.32;;;;;;;36.34;26.70;99777.44;5490456;32;33964;-88
2022/06/20 09:39:08;;;;;;;8.23;6.35;;;;;;;35.48;27.82;99777.06;5489242;32;33705;-88
2022/06/20 09:42:22;;;;;;;8.20;6.47;;;;;;;36.64;26.73;99758.66;5491322;32;34015;-88
2022/06/20 09:45:57;;;;;;;11.07;6.30;;;;;;;37.26;26.02;99758.16;5479219;32;32557;-88
2022/06/20 09:49:22;;;;;;;12.07;6.20;;;;;;;36.75;25.84;99762.31;5476631;32;32668;-88
2022/06/20 09:53:08;;;;;;;9.43;6.18;;;;;;;36.83;25.76;99756.25;5488559;32;33671;-88
2022/06/20 09:56:19;;;;;;;8.02;6.12;;;;;;;35.83;26.63;99761.19;5489252;32;34179;-88
2022/06/20 09:59:29;;;;;;;9.23;5.78;;;;;;;36.25;26.56;99754.19;5494376;32;33737;-89
2022/06/20 10:02:56;;;;;;;6.75;5.55;;;;;;;36.23;26.94;99748.91;5510356;32;34157;-88
2022/06/20 10:06:22;;;;;;;7.75;5.72;;;;;;;36.50;26.35;99741.66;5528561;32;33655;-88
2022/06/20 10:09:26;;;;;;;9.50;5.82;;;;;;;36.53;26.14;99744.72;5522811;32;34087;-88
2022/06/20 10:12:38;;;;;;;7.78;5.62;;;;;;;37.06;25.77;99737.59;5517215;32;34265;-91
2022/06/20 10:15:58;;;;;;;6.32;5.40;;;;;;;37.69;24.78;99728.44;5525425;32;33845;-88
2022/06/20 10:19:39;;;;;;;10.93;6.03;;;;;;;36.92;25.66;99726.19;5522363;32;34867;-87
2022/06/20 10:22:54;;;;;;;7.68;6.10;;;;;;;37.10;26.46;99727.69;5513502;32;34042;-88
2022/06/20 10:26:30;;;;;;;11.20;5.97;;;;;;;38.74;24.14;99724.56;5521358;32;34050;-88
2022/06/20 10:29:43;;;;;;;8.10;5.30;;;;;;;39.74;22.49;99717.47;5511888;32;34212;-87
2022/06/20 10:33:31;;;;;;;8.68;6.07;;;;;;;39.35;22.58;99735.72;5526114;32;33489;-87
2022/06/20 10:36:53;;;;;;;7.15;6.22;;;;;;;37.63;24.93;99724.00;5472744;32;34108;-88
2022/06/20 10:40:01;;;;;;;8.57;6.37;;;;;;;38.01;24.98;99707.19;5474055;32;35086;-88
2022/06/20 10:43:46;;;;;;;9.27;7.05;;;;;;;36.35;25.91;99707.31;5488667;32;35068;-88
2022/06/20 10:47:04;;;;;;;10.05;7.03;;;;;;;36.58;25.91;99713.53;5470783;32;35313;-87
2022/06/20 10:50:18;;;;;;;8.63;6.93;;;;;;;35.79;27.29;99713.19;5483963;32;33741;-87
2022/06/20 10:53:56;;;;;;;10.40;6.57;;;;;;;35.95;27.21;99708.62;5484840;32;33691;-87
2022/06/20 10:57:31;;;;;;;9.02;6.65;;;;;;;35.25;27.78;99712.03;5485373;32;34616;-88
2022/06/20 11:00:48;;;;;;;7.70;6.15;;;;;;;35.79;27.11;99704.91;5463965;32;33414;-88
2022/06/20 11:03:56;;;;;;;6.78;6.07;;;;;;;35.23;26.70;99705.94;5485711;32;33570;-87
2022/06/20 11:07:22;;;;;;;7.60;5.97;;;;;;;35.55;27.01;99694.97;5508112;32;34695;-88
2022/06/20 11:10:35;;;;;;;7.18;5.97;;;;;;;37.60;24.21;99688.63;5522956;32;33844;-88
2022/06/20 11:13:42;;;;;;;10.07;6.80;;;;;;;36.38;25.28;99681.94;5520965;32;35251;-87
2022/06/20 11:17:17;;;;;;;7.28;5.72;;;;;;;35.75;26.89;99677.84;5523615;32;33515;-87
2022/06/20 11:20:28;;;;;;;12.27;6.70;;;;;;;34.70;28.31;99679.63;5525039;32;32278;-88
2022/06/20 11:23:32;;;;;;;8.23;5.82;;;;;;;34.70;27.70;99676.88;5511765;32;33606;-86
2022/06/20 11:26:58;;;;;;;8.23;5.87;;;;;;;34.58;27.64;99663.22;5523951;32;33935;-86
2022/06/20 11:30:40;;;;;;;13.07;6.53;;;;;;;35.04;27.64;99664.91;5516250;32;33435;-87
2022/06/20 11:34:26;;;;;;;9.57;6.00;;;;;;;34.40;27.94;99672.56;5521275;32;33337;-88
2022/06/20 11:37:42;;;;;;;9.93;6.45;;;;;;;33.56;29.70;99686.00;5526748;32;32676;-87
2022/06/20 11:41:11;;;;;;;8.35;5.90;;;;;;;33.73;29.57;99680.53;5527978;32;33515;-87
2022/06/20 11:44:31;;;;;;;8.53;6.23;;;;;;;33.81;30.32;99677.38;5526143;32;34335;-87
2022/06/20 11:47:47;;;;;;;10.90;6.30;;;;;;;34.59;28.69;99681.37;5525180;32;34531;-86
2022/06/20 11:51:03;;;;;;;8.60;6.35;;;;;;;34.41;28.57;99683.34;5523934;32;32906;-87
2022/06/20 11:54:20;;;;;;;10.70;6.30;;;;;;;33.52;29.59;99665.59;5525236;32;34732;-91
2022/06/20 11:57:49;;;;;;;13.27;6.15;;;;;;;33.27;30.03;99677.75;5522186;32;33739;-87
2022/06/20 12:01:03;;;;;;;;;;;;;;;34.10;29.16;99680.09;5521561;32;32471;-87
2022/06/20 12:04:11;;;;;;;6.45;5.93;;;;;;;34.24;29.28;99682.50;5534959;32;34595;-87
2022/06/20 12:07:46;;;;;;;8.75;5.93;;;;;;;34.05;29.54;99674.50;5534550;32;34709;-87
2022/06/20 12:10:56;;;;;;;6.37;5.78;;;;;;;33.17;30.46;99661.84;5519107;32;33211;-87
2022/06/20 12:14:41;;;;;;;11.55;5.78;;;;;;;33.88;29.51;99656.03;5527883;32;34990;-88
2022/06/20 12:17:56;;;;;;;9.57;6.12;;;;;;;33.78;29.48;99669.62;5498479;32;34879;-87
2022/06/20 12:24:33;;;;;;;7.87;6.10;;;;;;;33.64;29.86;99644.38;5520790;32;34529;-88
2022/06/20 12:27:46;;;;;;;10.88;6.07;;;;;;;33.86;30.14;99649.97;5515085;32;33647;-88
2022/06/20 12:31:12;;;;;;;7.07;5.82;;;;;;;33.56;29.60;99653.84;5522619;32;33790;-87
2022/06/20 12:34:26;;;;;;;6.97;6.00;;;;;;;33.37;30.53;99635.87;5516834;32;32662;-88
2022/06/20 12:37:43;;;;;;;8.60;5.80;;;;;;;32.96;30.94;99635.91;5516407;32;33772;-88
2022/06/20 12:40:53;;;;;;;8.43;5.85;;;;;;;33.13;31.47;99622.25;5521234;32;34059;-88
2022/06/20 12:44:17;;;;;;;6.12;5.53;;;;;;;33.57;30.17;99628.03;5521913;32;34143;-88
2022/06/20 12:47:51;;;;;;;7.25;5.75;;;;;;;33.81;29.30;99627.03;5525257;32;33734;-89
2022/06/20 12:51:25;;;;;;;9.23;5.40;;;;;;;33.65;28.95;99637.78;5528460;32;34443;-90
2022/06/20 12:55:00;;;;;;;7.20;5.62;;;;;;;33.45;29.54;99614.34;5522348;32;35483;-87
2022/06/20 12:58:49;;;;;;;8.88;5.87;;;;;;;33.52;30.15;99633.44;5525156;32;33349;-88
2022/06/20 13:02:11;;;;;;;8.52;5.85;;;;;;;32.88;30.87;99618.69;5527544;32;33203;-88
2022/06/20 13:05:45;;;;;;;10.77;5.20;;;;;;;33.00;31.45;99620.59;5524020;32;32699;-88
2022/06/20 13:08:59;;;;;;;7.50;5.20;;;;;;;32.94;30.32;99623.22;5523288;32;35215;-91
2022/06/20 13:12:16;;;;;;;6.85;4.90;;;;;;;32.88;29.73;99606.91;5517275;32;34147;-89
2022/06/20 13:16:09;;;;;;;10.40;4.75;;;;;;;33.28;28.49;99606.03;5516587;32;34639;-88
2022/06/20 13:19:38;;;;;;;4.70;4.10;;;;;;;32.89;28.20;99606.63;5514916;32;32795;-88
2022/06/20 13:22:55;;;;;;;6.62;3.95;;;;;;;33.52;25.07;99614.19;5516435;32;34575;-88
2022/06/20 13:26:23;;;;;;;8.10;4.22;;;;;;;33.49;25.17;99611.91;5519197;32;33642;-88
2022/06/20 13:29:40;;;;;;;6.00;4.18;;;;;;;33.42;24.79;99598.31;5521672;32;33813;-88
2022/06/20 13:33:23;;;;;;;6.65;4.28;;;;;;;33.58;25.37;99602.19;5524467;32;32737;-90
2022/06/20 13:36:42;;;;;;;5.62;4.43;;;;;;;33.51;24.94;99607.03;5502992;32;34186;-88
2022/06/20 13:40:05;;;;;;;;;;;;;;;33.82;24.89;99596.53;5511695;32;32969;-88
2022/06/20 13:43:49;;;;;;;4.72;4.32;;;;;;;33.67;27.14;99597.13;5513264;32;34426;-87
2022/06/20 13:47:16;;;;;;;5.22;3.78;;;;;;;33.39;26.50;99581.50;5505841;32;33313;-88
2022/06/20 13:50:34;;;;;;;5.15;3.97;;;;;;;33.50;26.16;99596.25;5518227;32;33832;-89
2022/06/20 13:54:17;;;;;;;5.35;4.35;;;;;;;33.88;24.99;99594.69;5539157;32;34059;-88
2022/06/20 13:57:51;;;;;;;4.30;3.87;;;;;;;33.85;24.52;99581.47;5530952;32;34285;-88
2022/06/20 14:01:07;;;;;;;6.55;3.97;;;;;;;33.60;24.69;99580.78;5514001;32;33702;-89
2022/06/20 14:04:16;;;;;;;6.15;4.25;;;;;;;33.53;25.61;99577.38;5515509;32;32511;-89
2022/06/20 14:07:30;;;;;;;8.57;4.28;;;;;;;33.70;25.52;99560.06;5549079;32;34590;-87
2022/06/20 14:10:45;;;;;;;6.57;3.75;;;;;;;33.48;25.22;99549.75;5548754;32;34313;-89
2022/06/20 14:13:52;;;;;;;11.48;4.62;;;;;;;33.52;25.66;99561.16;5535177;32;32935;-88
2022/06/20 14:17:14;;;;;;;4.50;3.95;;;;;;;33.91;24.80;99563.09;5549119;32;34155;-88
2022/06/20 14:20:29;;;;;;;5.28;4.30;;;;;;;34.03;24.71;99561.09;5535993;32;33284;-89
2022/06/20 14:23:38;;;;;;;4.80;4.10;;;;;;;33.63;26.29;99557.47;5551261;32;34476;-91
2022/06/20 14:26:44;;;;;;;10.50;4.35;;;;;;;33.92;25.94;99553.78;5534519;32;32316;-92
2022/06/20 14:30:19;;;;;;;6.43;4.50;;;;;;;33.39;26.72;99535.63;5549403;32;34538;-89
2022/06/20 14:33:35;;;;;;;6.65;3.90;;;;;;;33.57;26.76;99545.56;5550339;32;33948;-88
2022/06/20 14:36:47;;;;;;;6.95;4.15;;;;;;;33.97;25.87;99545.59;5548053;32;34251;-88
2022/06/20 14:39:56;;;;;;;4.47;3.95;;;;;;;33.90;25.78;99537.53;5534665;32;34091;-89
2022/06/20 14:43:04;;;;;;;;;;;;;;;33.33;25.71;99531.94;5533317;32;34218;-89
2022/06/20 14:46:08;;;;;;;10.60;4.07;;;;;;;33.40;25.46;99526.28;5546054;32;33647;-88
2022/06/20 14:49:29;;;;;;;6.60;3.58;;;;;;;33.81;25.31;99533.53;5548232;32;34252;-88
2022/06/20 14:52:47;;;;;;;10.98;3.72;;;;;;;34.06;24.58;99535.87;5548215;32;33305;-88
2022/06/20 14:55:59;;;;;;;10.95;3.90;;;;;;;34.06;24.28;99527.63;5547771;32;33857;-88
2022/06/20 14:59:16;;;;;;;8.60;3.72;;;;;;;33.92;24.55;99524.34;5534696;32;32847;-88
2022/06/20 15:02:29;;;;;;;6.20;4.20;;;;;;;33.37;25.46;99518.53;5548497;32;33952;-88
2022/06/20 15:05:47;;;;;;;6.05;3.78;;;;;;;33.26;25.84;99514.78;5534462;32;32757;-93
2022/06/20 15:09:06;;;;;;;7.17;3.73;;;;;;;32.99;26.54;99503.59;5548814;32;33957;-89
2022/06/20 15:12:23;;;;;;;6.25;3.97;;;;;;;32.77;27.13;99502.34;5548757;32;33692;-88
2022/06/20 15:15:34;;;;;;;4.57;3.85;;;;;;;32.85;27.18;99512.09;5548495;32;33752;-88
2022/06/20 15:18:48;;;;;;;8.82;3.97;;;;;;;32.86;27.99;99512.91;5549535;32;34511;-88
2022/06/20 15:22:15;;;;;;;4.18;3.72;;;;;;;32.65;27.80;99512.53;5535952;32;34259;-88
2022/06/20 15:25:20;;;;;;;11.27;4.20;;;;;;;32.83;28.17;99508.75;5549618;32;33723;-88
